Time;durP1;ratioP1;P1;durP2;ratioP2;P2;SDS_P1;SDS_P2;PMS_P1;PMS_P2;Temp;Humidity;BMP_temperature;BMP_pressure;BME280_temperature;BME280_humidity;BME280_pressure;Samples;Min_cycle;Max_cycle;Signal;HPM_P1;HPM_P2
2023/03/14 00:02:01;;;;;;;3.50;0.80;;;;;;;17.66;54.74;98660.13;5109980;27;20187;-58
2023/03/14 00:04:26;;;;;;;3.60;1.20;;;;;;;17.66;54.40;98651.56;5109740;28;20238;-57
2023/03/14 00:06:51;;;;;;;4.70;1.57;;;;;;;17.65;54.92;98644.22;5108093;28;20173;-57
2023/03/14 00:09:17;;;;;;;3.83;1.20;;;;;;;17.65;54.58;98646.28;5109173;28;20185;-57
2023/03/14 00:11:42;;;;;;;4.90;1.87;;;;;;;17.63;54.47;98652.41;5108943;28;20845;-57
2023/03/14 00:14:09;;;;;;;2.20;0.70;;;;;;;17.62;54.14;98647.94;5090875;28;20233;-57
2023/03/14 00:16:34;;;;;;;5.40;1.60;;;;;;;17.64;54.50;98639.75;5088426;28;20424;-58
2023/03/14 00:19:03;;;;;;;5.73;1.20;;;;;;;17.66;54.50;98643.00;5087916;28;20189;-57
2023/03/14 00:21:28;;;;;;;2.07;1.07;;;;;;;17.66;54.69;98637.28;5088632;28;20614;-57
2023/03/14 00:23:53;;;;;;;4.30;1.10;;;;;;;17.67;54.59;98638.94;5071299;28;20412;-57
2023/03/14 00:26:20;;;;;;;4.33;1.70;;;;;;;17.67;54.41;98653.19;5088705;28;20220;-58
2023/03/14 00:28:45;;;;;;;5.50;1.33;;;;;;;17.68;54.55;98654.00;5089636;28;20642;-58
2023/03/14 00:31:13;;;;;;;4.50;1.17;;;;;;;17.65;54.27;98664.19;5088897;28;20470;-57
2023/03/14 00:33:38;;;;;;;5.07;1.43;;;;;;;17.66;54.68;98662.97;5089204;28;20170;-57
2023/03/14 00:36:10;;;;;;;3.10;1.03;;;;;;;17.68;54.56;98668.25;5053042;28;20425;-58
2023/03/14 00:38:36;;;;;;;4.27;1.47;;;;;;;17.69;54.50;98676.41;5078749;28;20266;-57
2023/03/14 00:41:09;;;;;;;4.57;1.30;;;;;;;17.67;54.37;98696.00;5086691;28;20919;-57
2023/03/14 00:43:34;;;;;;;3.97;1.33;;;;;;;17.69;54.77;98692.72;5071691;28;20186;-57
2023/03/14 00:46:00;;;;;;;3.47;0.97;;;;;;;17.67;54.58;98698.88;5089432;28;20432;-57
2023/03/14 00:48:25;;;;;;;3.00;1.10;;;;;;;17.69;54.67;98690.69;5093509;28;20178;-58
2023/03/14 00:50:50;;;;;;;4.20;1.27;;;;;;;17.68;54.67;98694.78;5083242;28;20248;-57
2023/03/14 00:53:16;;;;;;;7.43;1.50;;;;;;;17.52;54.76;98694.44;5084463;28;20682;-57
2023/03/14 00:55:42;;;;;;;6.70;1.30;;;;;;;17.47;56.07;98688.34;5072908;28;20634;-58
2023/03/14 00:58:08;;;;;;;4.50;1.30;;;;;;;17.39;56.86;98684.69;5062403;28;20616;-57
2023/03/14 01:00:33;;;;;;;3.40;1.30;;;;;;;17.40;56.63;98669.19;5092594;28;20231;-57
2023/03/14 01:02:58;;;;;;;4.40;1.20;;;;;;;17.46;57.43;98656.13;5095603;28;20181;-57
2023/03/14 01:05:24;;;;;;;5.43;1.43;;;;;;;17.52;57.50;98654.50;5092376;28;20214;-57
2023/03/14 01:07:49;;;;;;;6.53;1.50;;;;;;;17.59;57.27;98654.44;5093402;28;20616;-62
2023/03/14 01:10:15;;;;;;;6.03;1.50;;;;;;;17.63;57.23;98654.44;5059751;28;20210;-61
2023/03/14 01:12:41;;;;;;;8.40;1.83;;;;;;;17.60;57.43;98641.81;5107920;28;20249;-62
2023/03/14 01:15:06;;;;;;;9.60;2.00;;;;;;;17.60;57.31;98644.66;5113680;28;20181;-62
2023/03/14 01:17:32;;;;;;;7.30;1.37;;;;;;;17.61;57.79;98651.97;5112019;28;20553;-63
2023/03/14 01:19:57;;;;;;;12.40;1.40;;;;;;;17.62;57.23;98636.50;5112558;28;20637;-62
2023/03/14 01:22:23;;;;;;;5.40;1.70;;;;;;;17.66;56.93;98640.13;5112598;28;20545;-62
2023/03/14 01:24:48;;;;;;;9.50;1.67;;;;;;;17.68;57.27;98639.72;5112364;28;20174;-62
2023/03/14 01:27:13;;;;;;;5.20;1.70;;;;;;;17.64;57.03;98634.03;5104660;28;20236;-62
2023/03/14 01:29:39;;;;;;;4.80;1.60;;;;;;;17.63;57.14;98637.31;5074184;28;20182;-62
2023/03/14 01:32:04;;;;;;;9.30;1.90;;;;;;;17.69;56.81;98625.03;5095591;27;20243;-62
2023/03/14 01:34:30;;;;;;;4.30;1.60;;;;;;;17.72;56.78;98618.53;5113893;27;20576;-62
2023/03/14 01:36:55;;;;;;;4.47;1.90;;;;;;;17.71;56.90;98618.94;5112419;28;21037;-62
2023/03/14 01:39:20;;;;;;;6.30;1.43;;;;;;;17.70;56.74;98603.03;5112248;28;20170;-62
2023/03/14 01:41:46;;;;;;;5.63;1.63;;;;;;;17.70;56.81;98592.41;5112139;28;20640;-62
2023/03/14 01:44:11;;;;;;;5.03;1.80;;;;;;;17.71;57.11;98593.25;5112351;28;20186;-62
2023/03/14 01:46:43;;;;;;;3.90;1.40;;;;;;;17.70;57.19;98595.28;5112605;28;20192;-62
2023/03/14 01:49:13;;;;;;;5.53;1.70;;;;;;;17.67;57.22;98604.69;5111607;28;20712;-61
2023/03/14 01:51:49;;;;;;;5.13;1.30;;;;;;;17.66;57.44;98594.47;5093729;28;20543;-62
2023/03/14 01:54:21;;;;;;;6.60;1.50;;;;;;;17.65;56.95;98607.13;5111946;28;20431;-61
2023/03/14 01:56:56;;;;;;;4.50;1.10;;;;;;;17.68;57.00;98611.19;5079838;27;21019;-62
2023/03/14 01:59:22;;;;;;;4.80;1.10;;;;;;;17.69;56.88;98607.94;5092942;28;20897;-62
2023/03/14 02:01:47;;;;;;;10.00;1.50;;;;;;;17.67;57.27;98624.66;5093558;28;20427;-57
2023/03/14 02:04:13;;;;;;;4.30;1.30;;;;;;;17.66;56.68;98614.44;5074412;28;20223;-57
2023/03/14 02:06:49;;;;;;;8.27;2.27;;;;;;;17.69;57.54;98618.50;5073081;28;20586;-57
2023/03/14 02:09:14;;;;;;;5.13;1.40;;;;;;;17.69;57.09;98612.81;5109032;28;20173;-57
2023/03/14 02:11:40;;;;;;;3.13;1.10;;;;;;;17.64;57.09;98599.81;5092733;28;21020;-57
2023/03/14 02:14:05;;;;;;;14.73;1.97;;;;;;;17.65;57.18;98601.41;5110898;28;20185;-57
2023/03/14 02:16:30;;;;;;;3.97;1.50;;;;;;;17.64;57.31;98605.50;5093184;28;20227;-57
2023/03/14 02:18:56;;;;;;;4.33;1.40;;;;;;;17.67;57.12;98589.59;5092355;28;20178;-57
2023/03/14 02:21:33;;;;;;;6.23;1.20;;;;;;;17.65;57.16;98589.22;5112166;28;20588;-57
2023/03/14 02:24:28;;;;;;;5.20;1.53;;;;;;;17.64;56.79;98591.25;5093668;28;20165;-57
2023/03/14 02:27:11;;;;;;;6.70;1.47;;;;;;;17.67;56.85;98592.44;5114105;27;20426;-58
2023/03/14 02:29:39;;;;;;;6.23;2.03;;;;;;;17.67;57.21;98586.75;5110484;28;20471;-57
2023/03/14 02:32:05;;;;;;;4.67;1.20;;;;;;;17.64;57.24;98588.38;5112144;28;20504;-57
2023/03/14 02:34:31;;;;;;;5.43;1.77;;;;;;;17.64;57.09;98598.97;5092656;28;20804;-56
2023/03/14 02:36:56;;;;;;;5.90;1.50;;;;;;;17.65;57.31;98589.22;5111963;28;20169;-57
2023/03/14 02:39:29;;;;;;;5.73;1.63;;;;;;;17.65;57.25;98595.72;5097046;27;20449;-57
2023/03/14 02:41:54;;;;;;;5.47;1.60;;;;;;;17.64;57.17;98598.97;5068576;28;20638;-57
2023/03/14 02:44:20;;;;;;;3.73;1.67;;;;;;;17.64;57.47;98594.09;5091154;28;20412;-57
2023/03/14 02:46:45;;;;;;;9.07;1.77;;;;;;;17.63;57.27;98591.66;5106438;28;20185;-57
2023/03/14 02:49:12;;;;;;;4.53;1.57;;;;;;;17.64;56.78;98576.97;5111456;28;20176;-56
2023/03/14 02:51:37;;;;;;;7.07;1.87;;;;;;;17.64;56.86;98576.16;5092163;28;20201;-56
2023/03/14 02:54:02;;;;;;;4.37;1.50;;;;;;;17.64;57.05;98571.25;5092945;28;20971;-57
2023/03/14 02:56:28;;;;;;;4.97;1.40;;;;;;;17.65;57.34;98560.69;5111495;28;20593;-57
2023/03/14 02:58:53;;;;;;;6.20;1.37;;;;;;;17.62;57.30;98552.94;5110491;28;20173;-57
2023/03/14 03:01:19;;;;;;;5.07;1.57;;;;;;;17.61;57.13;98552.09;5111259;28;20892;-56
2023/03/14 03:03:44;;;;;;;3.70;1.40;;;;;;;17.62;57.11;98538.66;5110208;28;20209;-58
2023/03/14 03:06:10;;;;;;;7.00;1.63;;;;;;;17.60;57.17;98541.94;5110825;28;20185;-57
2023/03/14 03:08:35;;;;;;;3.60;1.10;;;;;;;17.62;57.22;98536.63;5110596;28;20177;-57
2023/03/14 03:11:01;;;;;;;3.10;1.33;;;;;;;17.61;57.07;98519.94;5107315;28;20209;-56
2023/03/14 03:13:26;;;;;;;3.27;1.20;;;;;;;17.61;56.67;98519.94;5088699;28;20197;-57
2023/03/14 03:15:52;;;;;;;4.00;1.40;;;;;;;17.65;57.16;98517.88;5089364;28;20200;-57
2023/03/14 03:18:17;;;;;;;4.60;1.77;;;;;;;17.68;57.06;98503.56;5070698;28;20194;-58
2023/03/14 03:20:42;;;;;;;4.57;1.37;;;;;;;17.71;56.40;98499.06;5089543;28;20147;-57
2023/03/14 03:23:08;;;;;;;3.93;1.20;;;;;;;17.70;56.87;98501.09;5088945;28;20499;-58
2023/03/14 03:25:33;;;;;;;4.33;1.50;;;;;;;17.68;56.71;98497.88;5089368;28;20178;-58
2023/03/14 03:27:59;;;;;;;2.70;1.00;;;;;;;17.71;56.49;98507.63;5090037;28;20197;-58
2023/03/14 03:30:24;;;;;;;4.13;1.60;;;;;;;17.66;56.62;98494.59;5089262;28;20790;-58
2023/03/14 03:32:50;;;;;;;4.20;1.40;;;;;;;17.65;56.67;98495.84;5089963;28;20174;-57
2023/03/14 03:35:15;;;;;;;2.47;1.00;;;;;;;17.69;56.89;98502.34;5091946;28;20530;-58
2023/03/14 03:37:41;;;;;;;3.33;1.67;;;;;;;17.66;56.94;98499.50;5089571;28;20199;-57
2023/03/14 03:40:07;;;;;;;4.13;1.47;;;;;;;17.65;57.00;98498.69;5089921;28;20957;-58
2023/03/14 03:42:33;;;;;;;4.87;1.30;;;;;;;17.66;56.73;98494.59;5070912;28;20185;-58
2023/03/14 03:44:59;;;;;;;3.33;1.30;;;;;;;17.66;57.05;98491.75;5089838;28;20782;-57
2023/03/14 03:47:25;;;;;;;3.40;1.30;;;;;;;17.64;56.91;98496.25;5071155;28;20206;-57
2023/03/14 03:49:50;;;;;;;4.67;1.60;;;;;;;17.67;57.22;98496.25;5089373;28;20525;-58
2023/03/14 03:52:15;;;;;;;4.00;1.17;;;;;;;17.66;57.00;98488.09;5089640;28;20637;-57
2023/03/14 03:54:41;;;;;;;3.77;1.53;;;;;;;17.67;56.85;98478.28;5070775;28;20178;-57
2023/03/14 03:57:06;;;;;;;3.73;1.03;;;;;;;17.65;57.08;98481.56;5089485;28;20211;-57
2023/03/14 03:59:32;;;;;;;2.93;1.27;;;;;;;17.65;57.38;98490.13;5089676;28;20916;-57
2023/03/14 04:01:57;;;;;;;4.10;1.17;;;;;;;17.63;56.91;98478.34;5070621;28;20186;-58
2023/03/14 04:04:23;;;;;;;2.20;0.90;;;;;;;17.64;56.84;98468.53;5091123;28;20193;-57
2023/03/14 04:06:48;;;;;;;3.83;1.40;;;;;;;17.64;57.07;98468.53;5088955;28;20873;-57
2023/03/14 04:09:13;;;;;;;4.47;1.10;;;;;;;17.65;57.24;98470.16;5089780;28;20622;-58
2023/03/14 04:11:42;;;;;;;3.60;1.00;;;;;;;17.62;57.06;98453.06;5097209;28;20279;-57
2023/03/14 04:14:07;;;;;;;3.70;1.27;;;;;;;17.63;57.13;98451.81;5110043;28;20177;-57
2023/03/14 04:16:33;;;;;;;4.10;1.20;;;;;;;17.64;56.89;98450.59;5109415;28;20950;-58
2023/03/14 04:18:58;;;;;;;4.60;1.60;;;;;;;17.63;56.79;98435.53;5109052;28;20149;-57
2023/03/14 04:21:24;;;;;;;3.40;1.13;;;;;;;17.63;57.02;98440.41;5110376;28;20154;-57
2023/03/14 04:23:49;;;;;;;3.30;1.33;;;;;;;17.62;56.98;98436.75;5114005;28;20154;-57
2023/03/14 04:26:15;;;;;;;5.70;1.27;;;;;;;17.63;57.14;98437.56;5108669;28;20178;-57
2023/03/14 04:28:40;;;;;;;3.73;1.13;;;;;;;17.62;56.92;98425.34;5093373;27;20174;-58
2023/03/14 04:31:10;;;;;;;3.20;1.20;;;;;;;17.63;57.02;98420.44;5116623;27;20186;-57
2023/03/14 04:33:37;;;;;;;6.70;1.50;;;;;;;17.60;57.04;98422.09;5114230;28;20161;-57
2023/03/14 04:36:03;;;;;;;5.07;1.10;;;;;;;17.62;57.04;98416.78;5112068;28;20820;-57
2023/03/14 04:38:28;;;;;;;2.43;1.20;;;;;;;17.63;56.97;98418.41;5113984;28;20415;-57
2023/03/14 04:40:54;;;;;;;6.53;1.57;;;;;;;17.62;56.72;98413.94;5115523;27;20422;-58
2023/03/14 04:43:19;;;;;;;2.23;0.97;;;;;;;17.60;57.12;98416.38;5112228;28;20195;-57
2023/03/14 04:45:44;;;;;;;4.03;1.53;;;;;;;17.59;57.10;98423.31;5112763;28;20181;-58
2023/03/14 04:48:10;;;;;;;3.60;1.20;;;;;;;17.59;56.98;98413.94;5113768;28;20181;-57
2023/03/14 04:50:35;;;;;;;4.17;0.97;;;;;;;17.59;56.77;98411.09;5113299;28;20239;-58
2023/03/14 04:53:01;;;;;;;2.10;1.17;;;;;;;17.57;56.85;98400.13;5112775;28;20189;-57
2023/03/14 04:55:26;;;;;;;4.67;0.90;;;;;;;17.63;56.80;98404.13;5113547;28;20566;-58
2023/03/14 04:57:52;;;;;;;4.80;1.30;;;;;;;17.65;56.69;98401.66;5113448;28;20191;-58
2023/03/14 05:00:18;;;;;;;3.43;1.30;;;;;;;17.66;56.81;98406.13;5112092;28;20621;-57
2023/03/14 05:02:43;;;;;;;3.63;1.17;;;;;;;17.67;56.61;98404.09;5112403;28;20188;-57
2023/03/14 05:05:09;;;;;;;2.30;1.17;;;;;;;17.65;56.88;98406.56;5103239;28;20444;-58
2023/03/14 05:07:34;;;;;;;4.60;1.10;;;;;;;17.68;56.56;98411.44;5112728;28;20178;-58
2023/03/14 05:10:00;;;;;;;4.30;1.50;;;;;;;17.67;56.72;98404.94;5112624;28;20692;-58
2023/03/14 05:12:25;;;;;;;3.47;1.07;;;;;;;17.69;56.63;98408.16;5113348;28;20736;-57
2023/03/14 05:14:50;;;;;;;2.33;0.90;;;;;;;17.67;56.64;98406.97;5112737;27;20702;-57
2023/03/14 05:17:16;;;;;;;3.93;1.30;;;;;;;17.66;56.61;98402.50;5113229;28;20178;-57
2023/03/14 05:19:41;;;;;;;5.03;1.40;;;;;;;17.63;56.86;98395.59;5112824;28;20165;-57
2023/03/14 05:22:07;;;;;;;4.07;1.30;;;;;;;17.63;56.86;98391.91;5113116;28;20166;-57
2023/03/14 05:24:32;;;;;;;1.93;0.80;;;;;;;17.63;57.10;98381.31;5112211;28;20182;-58
2023/03/14 05:26:58;;;;;;;2.17;0.90;;;;;;;17.64;57.08;98377.22;5113046;27;20181;-58
2023/03/14 05:29:23;;;;;;;1.83;1.00;;;;;;;17.61;56.78;98368.69;5111936;28;20177;-58
2023/03/14 05:31:49;;;;;;;3.47;1.30;;;;;;;17.62;56.97;98365.44;5112566;28;20223;-58
2023/03/14 05:34:14;;;;;;;7.47;1.80;;;;;;;17.63;57.09;98364.19;5114505;27;20166;-58
2023/03/14 05:36:39;;;;;;;6.47;1.30;;;;;;;17.63;56.93;98355.63;5112696;28;20177;-58
2023/03/14 05:39:05;;;;;;;2.90;1.30;;;;;;;17.61;56.71;98363.78;5111916;28;20174;-57
2023/03/14 05:41:30;;;;;;;3.13;1.30;;;;;;;17.64;56.67;98348.69;5112639;28;20787;-57
2023/03/14 05:43:56;;;;;;;2.63;0.87;;;;;;;17.62;56.82;98342.59;5112743;28;20162;-57
2023/03/14 05:46:21;;;;;;;3.77;1.23;;;;;;;17.64;56.78;98353.56;5111898;28;20918;-57
2023/03/14 05:48:46;;;;;;;2.67;1.20;;;;;;;17.61;56.90;98343.81;5112610;28;20653;-57
2023/03/14 05:51:12;;;;;;;2.70;1.10;;;;;;;17.61;57.02;98338.09;5111493;28;20197;-57
2023/03/14 05:53:37;;;;;;;2.83;1.10;;;;;;;17.62;56.89;98327.50;5112592;28;20177;-57
2023/03/14 05:56:03;;;;;;;2.60;0.97;;;;;;;17.62;56.81;98331.19;5111949;27;20186;-57
2023/03/14 05:58:28;;;;;;;2.50;1.60;;;;;;;17.63;56.85;98341.38;5126855;27;20221;-57
2023/03/14 06:00:54;;;;;;;2.90;1.00;;;;;;;17.64;56.66;98325.84;5116643;27;20230;-58
2023/03/14 06:03:19;;;;;;;3.90;1.37;;;;;;;17.62;56.79;98319.78;5110842;28;20165;-59
2023/03/14 06:05:44;;;;;;;2.03;1.07;;;;;;;17.60;56.88;98310.81;5110628;28;20205;-57
2023/03/14 06:08:10;;;;;;;2.87;1.30;;;;;;;17.62;56.75;98313.25;5112269;28;20162;-58
2023/03/14 06:10:36;;;;;;;4.03;1.23;;;;;;;17.59;57.21;98314.91;5110948;28;20201;-57
2023/03/14 06:13:01;;;;;;;3.70;1.20;;;;;;;17.62;56.37;98319.78;5112089;28;20221;-57
2023/03/14 06:15:27;;;;;;;2.90;1.10;;;;;;;17.63;56.63;98317.72;5110676;28;20206;-57
2023/03/14 06:17:54;;;;;;;3.00;0.80;;;;;;;17.60;56.71;98316.50;5108751;28;20620;-58
2023/03/14 06:20:20;;;;;;;3.97;1.53;;;;;;;17.63;56.91;98317.72;5109920;28;20520;-57
2023/03/14 06:22:45;;;;;;;3.27;1.10;;;;;;;17.62;56.96;98318.94;5109512;28;20484;-57
2023/03/14 06:25:11;;;;;;;2.83;1.10;;;;;;;17.60;56.71;98315.72;5110067;28;20188;-57
2023/03/14 06:27:36;;;;;;;2.70;1.07;;;;;;;17.60;56.90;98310.03;5112486;27;20170;-58
2023/03/14 06:30:01;;;;;;;3.37;1.10;;;;;;;17.61;56.94;98309.56;5109348;28;20191;-58
2023/03/14 06:32:28;;;;;;;2.60;1.10;;;;;;;17.58;56.96;98309.63;5110963;28;20231;-58
2023/03/14 06:34:53;;;;;;;3.83;1.00;;;;;;;17.66;56.88;98309.09;5110549;28;20439;-57
2023/03/14 06:37:18;;;;;;;3.37;1.20;;;;;;;17.71;56.20;98305.78;5111377;28;20212;-57
2023/03/14 06:39:44;;;;;;;4.23;1.30;;;;;;;17.67;56.91;98313.59;5110284;28;20169;-58
2023/03/14 06:42:09;;;;;;;2.50;1.20;;;;;;;17.67;56.79;98318.50;5121549;27;20181;-57
2023/03/14 06:44:35;;;;;;;3.00;0.80;;;;;;;17.64;56.64;98313.63;5131875;27;20174;-58
2023/03/14 06:47:00;;;;;;;2.80;1.13;;;;;;;17.64;56.66;98311.59;5123554;27;20708;-58
2023/03/14 06:49:26;;;;;;;2.90;0.90;;;;;;;17.67;56.71;98313.59;5111561;28;20173;-57
2023/03/14 06:51:51;;;;;;;3.57;1.10;;;;;;;17.66;56.73;98317.66;5110974;28;20190;-57
2023/03/14 06:54:17;;;;;;;2.90;0.80;;;;;;;17.68;56.63;98314.41;5110633;28;20996;-58
2023/03/14 06:56:42;;;;;;;2.13;1.00;;;;;;;17.69;56.64;98302.56;5111118;28;20627;-58
2023/03/14 06:59:07;;;;;;;2.53;1.03;;;;;;;17.65;56.51;98310.34;5111173;28;20649;-58
2023/03/14 07:01:34;;;;;;;2.53;1.03;;;;;;;17.67;56.60;98307.09;5109364;28;20154;-58
2023/03/14 07:04:00;;;;;;;5.10;1.30;;;;;;;17.66;56.02;98288.34;5109858;28;20213;-58
2023/03/14 07:06:26;;;;;;;3.73;1.30;;;;;;;17.66;56.83;98303.41;5088946;28;20424;-58
2023/03/14 07:08:52;;;;;;;2.80;0.93;;;;;;;17.67;56.50;98296.50;5102821;28;20670;-58
2023/03/14 07:11:17;;;;;;;1.83;0.93;;;;;;;17.67;56.90;98305.06;5109692;28;20566;-58
2023/03/14 07:13:42;;;;;;;2.90;1.30;;;;;;;17.67;56.74;98305.06;5109393;28;20181;-58
2023/03/14 07:16:08;;;;;;;2.90;1.00;;;;;;;17.65;56.97;98303.84;5106905;28;20846;-58
2023/03/14 07:18:34;;;;;;;3.63;1.13;;;;;;;17.67;56.98;98307.91;5110519;28;20170;-58
2023/03/14 07:20:59;;;;;;;2.67;0.87;;;;;;;17.67;56.63;98307.91;5110267;28;20250;-58
2023/03/14 07:23:25;;;;;;;1.70;0.80;;;;;;;17.66;56.73;98303.41;5110261;28;20174;-57
2023/03/14 07:25:51;;;;;;;2.93;0.90;;;;;;;17.65;56.80;98304.66;5109055;28;20593;-58
2023/03/14 07:28:17;;;;;;;1.90;0.80;;;;;;;17.67;56.76;98301.38;5110409;28;20172;-57
2023/03/14 07:30:42;;;;;;;2.13;1.00;;;;;;;17.67;56.77;98307.91;5104650;28;21260;-57
2023/03/14 07:33:07;;;;;;;3.90;1.17;;;;;;;17.67;56.53;98307.09;5106712;28;20296;-57
2023/03/14 07:35:33;;;;;;;3.20;1.20;;;;;;;17.68;56.69;98308.69;5109790;28;20164;-57
2023/03/14 07:37:58;;;;;;;3.00;1.13;;;;;;;17.68;56.82;98303.00;5109948;27;20184;-57
2023/03/14 07:40:24;;;;;;;3.93;1.20;;;;;;;17.67;56.86;98307.91;5105849;27;20174;-58
2023/03/14 07:42:49;;;;;;;2.50;0.90;;;;;;;17.60;56.53;98310.81;5092879;28;20190;-58
2023/03/14 07:45:15;;;;;;;2.03;0.90;;;;;;;17.36;52.61;98306.13;5108934;28;20162;-57
2023/03/14 07:47:40;;;;;;;4.33;0.93;;;;;;;17.23;53.95;98319.28;5107861;28;20188;-58
2023/03/14 07:50:06;;;;;;;3.53;0.80;;;;;;;17.05;52.55;98327.16;5108681;28;20223;-58
2023/03/14 07:52:31;;;;;;;8.00;1.20;;;;;;;16.85;52.27;98337.47;5108787;28;20181;-58
2023/03/14 07:54:57;;;;;;;5.43;0.87;;;;;;;16.79;52.21;98346.88;5104831;28;20211;-58
2023/03/14 07:57:23;;;;;;;3.83;0.87;;;;;;;16.94;52.53;98342.72;5096006;28;20189;-58
2023/03/14 07:59:49;;;;;;;3.30;0.97;;;;;;;17.48;53.77;98342.72;5102226;28;20901;-58
2023/03/14 08:02:14;;;;;;;7.23;2.07;;;;;;;17.89;55.43;98345.56;5107532;28;20404;-59
2023/03/14 08:04:40;;;;;;;9.13;2.03;;;;;;;18.35;56.63;98349.56;5105506;28;20568;-58
2023/03/14 08:07:05;;;;;;;11.13;2.07;;;;;;;18.43;54.75;98348.25;5107056;28;20302;-58
2023/03/14 08:09:31;;;;;;;7.23;1.87;;;;;;;18.29;54.22;98339.00;5107813;28;20254;-58
2023/03/14 08:11:56;;;;;;;7.00;1.67;;;;;;;18.48;53.64;98347.75;5107073;28;20312;-58
2023/03/14 08:14:23;;;;;;;6.60;1.70;;;;;;;18.59;54.39;98365.56;5108403;28;20665;-58
2023/03/14 08:16:50;;;;;;;3.13;1.13;;;;;;;18.79;53.45;98351.41;5106333;28;20201;-57
2023/03/14 08:19:15;;;;;;;4.53;1.20;;;;;;;18.86;52.71;98354.97;5106870;28;20515;-59
2023/03/14 08:21:41;;;;;;;9.30;1.90;;;;;;;18.71;52.98;98358.50;5106312;28;20852;-58
2023/03/14 08:24:06;;;;;;;7.70;1.40;;;;;;;18.81;53.20;98346.09;5105569;28;20173;-57
2023/03/14 08:26:32;;;;;;;4.60;1.27;;;;;;;18.64;52.63;98353.66;5096111;28;20193;-57
2023/03/14 08:28:57;;;;;;;4.70;1.00;;;;;;;18.74;53.23;98355.56;5106633;28;20258;-58
2023/03/14 08:31:22;;;;;;;14.27;1.60;;;;;;;18.77;53.23;98345.34;5109071;27;20216;-58
2023/03/14 08:33:48;;;;;;;17.00;2.50;;;;;;;18.80;52.84;98362.44;5106632;28;20234;-59
2023/03/14 08:36:13;;;;;;;6.63;1.50;;;;;;;18.71;53.04;98367.84;5107776;28;20170;-57
2023/03/14 08:38:42;;;;;;;32.87;13.03;;;;;;;18.53;55.38;98367.28;5108516;28;20165;-57
2023/03/14 08:41:08;;;;;;;9.47;3.77;;;;;;;18.50;55.13;98379.56;5106743;28;20182;-58
2023/03/14 08:43:33;;;;;;;7.10;2.37;;;;;;;18.51;55.25;98375.47;5100276;28;20931;-58
2023/03/14 08:45:59;;;;;;;7.63;1.90;;;;;;;18.57;54.46;98385.19;5095254;28;20177;-57
2023/03/14 08:48:25;;;;;;;11.33;2.00;;;;;;;18.47;55.64;98394.69;5106531;28;20166;-58
2023/03/14 08:50:50;;;;;;;5.27;1.90;;;;;;;18.40;55.66;98394.78;5107298;28;20582;-57
2023/03/14 08:53:16;;;;;;;7.60;2.00;;;;;;;18.25;55.51;98398.19;5105417;28;20235;-58
2023/03/14 08:55:41;;;;;;;4.57;1.70;;;;;;;18.22;54.56;98391.28;5107238;28;20227;-57
2023/03/14 08:58:06;;;;;;;11.10;2.10;;;;;;;18.19;54.72;98388.47;5105072;28;20664;-57
2023/03/14 09:00:32;;;;;;;7.17;1.73;;;;;;;18.23;54.21;98392.09;5092118;28;20897;-58
2023/03/14 09:02:57;;;;;;;12.23;1.97;;;;;;;18.28;54.73;98395.31;5107309;28;21053;-57
2023/03/14 09:05:23;;;;;;;9.60;1.60;;;;;;;18.28;54.71;98391.66;5107612;28;20208;-57
2023/03/14 09:07:48;;;;;;;3.83;1.30;;;;;;;18.22;55.04;98382.72;5105826;28;20999;-57
2023/03/14 09:10:14;;;;;;;5.10;1.37;;;;;;;18.17;55.03;98397.47;5110361;28;20210;-57
2023/03/14 09:12:39;;;;;;;6.93;1.40;;;;;;;18.20;55.64;98388.06;5109709;28;20217;-58
2023/03/14 09:15:05;;;;;;;9.00;1.30;;;;;;;18.21;54.95;98386.81;5110393;28;20214;-58
2023/03/14 09:17:30;;;;;;;3.70;1.53;;;;;;;18.19;55.04;98397.88;5111578;28;20251;-57
2023/03/14 09:19:56;;;;;;;10.20;1.43;;;;;;;18.17;54.93;98393.81;5108350;28;20185;-57
2023/03/14 09:22:21;;;;;;;4.03;1.30;;;;;;;18.14;55.05;98388.94;5111952;28;20170;-57
2023/03/14 09:24:47;;;;;;;8.20;1.67;;;;;;;18.15;55.00;98391.38;5109439;28;20214;-58
2023/03/14 09:27:12;;;;;;;4.90;1.40;;;;;;;18.08;55.50;98402.88;5110304;27;20271;-57
2023/03/14 09:29:38;;;;;;;11.87;1.40;;;;;;;18.02;55.24;98406.63;5098037;28;20580;-57
2023/03/14 09:32:03;;;;;;;4.37;1.07;;;;;;;18.05;53.99;98408.59;5109921;28;20637;-57
2023/03/14 09:34:29;;;;;;;3.40;1.27;;;;;;;18.09;53.89;98415.94;5110867;28;20184;-57
2023/03/14 09:36:54;;;;;;;4.27;1.00;;;;;;;18.10;54.05;98416.72;5110465;28;20173;-57
2023/03/14 09:39:19;;;;;;;3.40;1.17;;;;;;;18.07;54.14;98421.22;5111821;27;20174;-57
2023/03/14 09:41:49;;;;;;;3.70;1.10;;;;;;;18.08;54.27;98427.75;5107239;28;20222;-57
2023/03/14 09:44:22;;;;;;;4.37;1.30;;;;;;;18.05;54.59;98423.72;5108597;28;20656;-58
2023/03/14 09:46:50;;;;;;;6.90;1.13;;;;;;;18.05;54.27;98429.41;5108783;28;20431;-58
2023/03/14 09:49:21;;;;;;;5.40;1.17;;;;;;;18.05;54.72;98434.31;5108649;28;20431;-58
2023/03/14 09:51:47;;;;;;;7.80;1.63;;;;;;;18.04;54.42;98441.25;5106834;28;20455;-57
2023/03/14 09:54:37;;;;;;;11.93;1.63;;;;;;;18.00;54.33;98452.72;5109275;28;20991;-57
2023/03/14 09:57:04;;;;;;;4.27;1.10;;;;;;;18.00;54.58;98444.16;5100056;28;20445;-58
2023/03/14 09:59:29;;;;;;;8.30;2.00;;;;;;;18.00;54.65;98455.56;5109988;28;20439;-57
2023/03/14 10:01:58;;;;;;;5.50;1.37;;;;;;;18.02;54.65;98455.16;5109292;27;20546;-57
2023/03/14 10:04:23;;;;;;;6.83;1.30;;;;;;;18.01;55.67;98444.97;5108276;28;20288;-58
2023/03/14 10:06:49;;;;;;;5.67;1.53;;;;;;;17.97;56.66;98447.06;5108408;28;20442;-57
2023/03/14 10:09:26;;;;;;;6.10;1.20;;;;;;;17.93;56.40;98451.97;5115439;27;20222;-57
2023/03/14 10:11:55;;;;;;;3.73;1.30;;;;;;;17.96;56.78;98446.22;5106955;28;20255;-56
2023/03/14 10:14:32;;;;;;;6.50;1.33;;;;;;;17.98;56.85;98440.94;5111753;28;20423;-57
2023/03/14 10:17:05;;;;;;;9.73;1.73;;;;;;;17.97;56.83;98450.69;5105363;28;20431;-57
2023/03/14 10:19:30;;;;;;;10.50;2.03;;;;;;;17.98;56.45;98460.09;5111417;28;20919;-57
2023/03/14 10:21:56;;;;;;;7.77;1.60;;;;;;;17.98;56.72;98462.94;5102782;27;20494;-57
2023/03/14 10:24:27;;;;;;;5.33;1.07;;;;;;;17.97;56.70;98464.97;5106305;28;20235;-58
2023/03/14 10:27:19;;;;;;;6.20;1.27;;;;;;;17.95;56.57;98467.44;5126729;27;20186;-57
2023/03/14 10:29:56;;;;;;;5.90;1.63;;;;;;;17.97;56.88;98473.53;5108726;28;20518;-57
2023/03/14 10:32:22;;;;;;;4.87;1.37;;;;;;;17.97;56.76;98484.97;5112189;28;20458;-57
2023/03/14 10:35:06;;;;;;;11.53;2.27;;;;;;;17.98;56.90;98489.47;5112494;28;20484;-57
2023/03/14 10:37:31;;;;;;;4.30;1.20;;;;;;;17.97;56.85;98493.53;5111804;28;20843;-57
2023/03/14 10:40:08;;;;;;;6.53;1.40;;;;;;;17.97;56.92;98504.94;5112285;28;20415;-57
2023/03/14 10:42:44;;;;;;;5.10;1.60;;;;;;;17.98;56.97;98503.75;5113300;27;20547;-58
2023/03/14 10:45:43;;;;;;;4.83;1.23;;;;;;;17.98;56.77;98522.91;5101771;27;20869;-57
2023/03/14 10:48:14;;;;;;;4.63;1.10;;;;;;;17.98;56.79;98525.75;5109774;28;20447;-57
2023/03/14 10:50:58;;;;;;;10.77;2.40;;;;;;;17.97;56.87;98538.41;5111789;28;20856;-57
2023/03/14 10:53:24;;;;;;;4.20;1.43;;;;;;;17.95;57.12;98547.38;5109032;28;21148;-58
2023/03/14 10:55:50;;;;;;;5.80;1.70;;;;;;;17.95;57.13;98553.09;5111284;28;20426;-58
2023/03/14 10:58:28;;;;;;;4.70;1.77;;;;;;;17.95;56.96;98570.22;5111015;28;20177;-58
2023/03/14 11:01:32;;;;;;;7.00;1.47;;;;;;;17.95;57.18;98593.06;5088812;28;20182;-58
2023/03/14 11:04:09;;;;;;;5.97;1.10;;;;;;;17.96;56.77;98608.19;5106157;28;20440;-57
2023/03/14 11:06:34;;;;;;;10.60;1.30;;;;;;;17.95;57.10;98630.19;5106979;28;20431;-57
2023/03/14 11:09:18;;;;;;;3.00;0.80;;;;;;;17.93;57.19;98634.69;5110057;27;20423;-57
2023/03/14 11:11:46;;;;;;;5.83;1.40;;;;;;;17.92;57.04;98651.03;5109766;28;20225;-57
2023/03/14 11:14:33;;;;;;;4.50;1.50;;;;;;;17.94;56.79;98645.69;5109512;28;20464;-57
2023/03/14 11:17:00;;;;;;;7.20;1.20;;;;;;;17.94;56.86;98671.41;5108986;28;20477;-57
2023/03/14 11:19:32;;;;;;;5.30;1.10;;;;;;;17.95;56.99;98681.59;5110756;28;20753;-57
2023/03/14 11:22:04;;;;;;;4.63;0.90;;;;;;;17.95;56.78;98689.31;5110335;28;20435;-57
2023/03/14 11:24:38;;;;;;;5.57;1.10;;;;;;;17.93;56.84;98706.88;5110526;28;20449;-57
2023/03/14 11:27:30;;;;;;;6.33;1.10;;;;;;;17.92;56.77;98725.25;5110655;27;20476;-57
2023/03/14 11:30:01;;;;;;;4.20;1.30;;;;;;;17.90;56.99;98733.41;5090736;28;20482;-57
2023/03/14 11:32:41;;;;;;;4.30;1.53;;;;;;;17.92;56.94;98753.81;5088231;28;20432;-57
2023/03/14 11:35:52;;;;;;;7.70;1.17;;;;;;;17.92;56.95;98753.81;5105200;28;20534;-57